Time;durP1;ratioP1;P1;durP2;ratioP2;P2;SDS_P1;SDS_P2;PMS_P1;PMS_P2;Temp;Humidity;BMP_temperature;BMP_pressure;BME280_temperature;BME280_humidity;BME280_pressure;Samples;Min_cycle;Max_cycle;Signal;HPM_P1;HPM_P2
2023/02/12 00:01:07;;;;;;;14.43;7.43;;;7.20;99.90;;;;;;5092550;28;20217;-61
2023/02/12 00:03:34;;;;;;;11.50;6.80;;;7.10;99.90;;;;;;5079916;28;20209;-51
2023/02/12 00:06:01;;;;;;;14.20;6.37;;;7.10;99.90;;;;;;5093282;28;20255;-59
2023/02/12 00:08:30;;;;;;;14.93;7.40;;;7.20;99.90;;;;;;5091790;28;20318;-48
2023/02/12 00:10:56;;;;;;;15.03;7.30;;;7.10;99.90;;;;;;5087568;28;20201;-58
2023/02/12 00:13:23;;;;;;;12.53;6.40;;;7.20;99.90;;;;;;5094881;28;20197;-47
2023/02/12 00:15:50;;;;;;;11.20;7.00;;;7.10;99.90;;;;;;5090888;28;20206;-57
2023/02/12 00:18:17;;;;;;;8.50;6.47;;;7.10;99.90;;;;;;5085982;28;20218;-51
2023/02/12 00:20:44;;;;;;;15.83;7.57;;;7.10;99.90;;;;;;5079575;28;20222;-46
2023/02/12 00:23:11;;;;;;;12.30;7.73;;;7.10;99.90;;;;;;5089264;28;20432;-45
2023/02/12 00:25:42;;;;;;;16.60;7.57;;;7.10;99.90;;;;;;5101012;28;20219;-50
2023/02/12 00:28:08;;;;;;;18.27;8.17;;;7.10;99.90;;;;;;5083566;28;20221;-54
2023/02/12 00:30:35;;;;;;;20.60;7.87;;;7.10;99.90;;;;;;5090188;28;20210;-45
2023/02/12 00:33:02;;;;;;;18.87;8.37;;;7.00;99.90;;;;;;5075195;28;20255;-56
2023/02/12 00:35:29;;;;;;;22.80;8.90;;;7.00;99.90;;;;;;5073212;28;20220;-48
2023/02/12 00:37:56;;;;;;;14.97;7.80;;;7.00;99.90;;;;;;5076459;28;20229;-55
2023/02/12 00:40:23;;;;;;;15.90;7.27;;;7.00;99.90;;;;;;5067126;28;20845;-46
2023/02/12 00:42:51;;;;;;;14.90;6.57;;;7.00;99.90;;;;;;5086408;28;20685;-54
2023/02/12 00:45:18;;;;;;;13.13;6.37;;;7.00;99.90;;;;;;5091963;28;20182;-51
2023/02/12 00:47:45;;;;;;;12.50;6.00;;;7.00;99.90;;;;;;5087333;28;20217;-45
2023/02/12 00:50:12;;;;;;;11.00;5.97;;;6.90;99.90;;;;;;5078237;28;21993;-46
2023/02/12 00:52:40;;;;;;;10.70;5.17;;;6.90;99.90;;;;;;5084481;28;20565;-51
2023/02/12 00:55:08;;;;;;;10.87;4.57;;;7.00;99.90;;;;;;5100317;28;20559;-54
2023/02/12 00:57:35;;;;;;;9.87;5.30;;;6.90;99.90;;;;;;5101371;28;20567;-50
2023/02/12 01:00:04;;;;;;;8.27;5.20;;;6.90;99.90;;;;;;5078762;28;20205;-53
2023/02/12 01:02:30;;;;;;;9.33;5.37;;;6.90;99.90;;;;;;5094128;28;20198;-47
2023/02/12 01:04:58;;;;;;;9.40;5.27;;;6.90;99.90;;;;;;5091109;28;20205;-57
2023/02/12 01:07:25;;;;;;;13.10;5.53;;;6.90;99.90;;;;;;5077040;28;20225;-49
2023/02/12 01:09:52;;;;;;;7.83;5.20;;;6.90;99.90;;;;;;5094988;28;20201;-57
2023/02/12 01:12:19;;;;;;;15.17;5.43;;;6.90;99.90;;;;;;5086801;28;20182;-50
2023/02/12 01:14:46;;;;;;;11.63;6.07;;;6.90;99.90;;;;;;5086748;28;20230;-46
2023/02/12 01:17:14;;;;;;;12.20;5.80;;;6.90;99.90;;;;;;5080080;28;20741;-44
2023/02/12 01:19:59;;;;;;;8.87;5.27;;;6.90;99.90;;;;;;5083664;28;20212;-49
2023/02/12 01:22:26;;;;;;;8.37;5.20;;;6.90;99.90;;;;;;5077637;28;20779;-50
2023/02/12 01:24:53;;;;;;;8.07;5.10;;;6.90;99.90;;;;;;5086851;28;20395;-47
2023/02/12 01:27:20;;;;;;;7.23;5.00;;;6.80;99.90;;;;;;5088649;28;20327;-49
2023/02/12 01:29:47;;;;;;;7.43;4.17;;;6.80;99.90;;;;;;5084226;28;20200;-60
2023/02/12 01:32:16;;;;;;;7.97;4.53;;;6.80;99.90;;;;;;5091171;28;20197;-48
2023/02/12 01:34:42;;;;;;;7.13;3.83;;;6.80;99.90;;;;;;5085013;28;20208;-60
2023/02/12 01:37:09;;;;;;;7.73;4.03;;;6.80;99.90;;;;;;5074404;28;22004;-48
2023/02/12 01:39:39;;;;;;;6.23;4.37;;;6.70;99.90;;;;;;5091278;28;20344;-45
2023/02/12 01:42:06;;;;;;;11.87;5.33;;;6.70;99.90;;;;;;5100743;28;20274;-52
2023/02/12 01:44:34;;;;;;;13.93;5.97;;;6.70;99.90;;;;;;5068621;28;20547;-56
2023/02/12 01:47:03;;;;;;;11.77;5.93;;;6.70;99.90;;;;;;5093773;28;20224;-49
2023/02/12 01:49:36;;;;;;;13.60;5.90;;;6.70;99.90;;;;;;5085733;28;20190;-55
2023/02/12 01:52:08;;;;;;;10.87;5.53;;;6.80;99.90;;;;;;5090089;28;20206;-50
2023/02/12 01:54:37;;;;;;;13.43;5.83;;;6.70;99.90;;;;;;5076553;28;20281;-53
2023/02/12 01:57:06;;;;;;;11.83;5.53;;;6.70;99.90;;;;;;5096644;28;20228;-49
2023/02/12 01:59:35;;;;;;;14.50;6.27;;;6.70;99.90;;;;;;5090507;28;20208;-52
2023/02/12 02:02:02;;;;;;;11.03;6.03;;;6.70;99.90;;;;;;5087396;28;20218;-47
2023/02/12 02:04:53;;;;;;;13.87;7.57;;;6.70;99.90;;;;;;5087875;28;20208;-46
2023/02/12 02:07:20;;;;;;;13.67;7.83;;;6.80;99.90;;;;;;5073890;28;20233;-55
2023/02/12 02:09:48;;;;;;;18.33;8.53;;;6.70;99.90;;;;;;5082166;28;20204;-48
2023/02/12 02:15:01;;;;;;;14.83;7.83;;;6.70;99.90;;;;;;5088231;28;20747;-53
2023/02/12 02:17:40;;;;;;;14.07;8.63;;;6.80;99.90;;;;;;5085887;28;20241;-59
2023/02/12 02:20:36;;;;;;;17.63;8.93;;;6.80;99.90;;;;;;5094448;28;20249;-51
2023/02/12 02:23:17;;;;;;;14.17;7.33;;;6.80;99.90;;;;;;5076982;28;20713;-55
2023/02/12 02:25:56;;;;;;;18.03;8.47;;;6.80;99.90;;;;;;5092642;28;20189;-47
2023/02/12 02:28:43;;;;;;;18.17;8.23;;;6.70;99.90;;;;;;5085171;28;20225;-56
2023/02/12 02:31:16;;;;;;;14.40;7.63;;;6.80;99.90;;;;;;5094429;28;20548;-47
2023/02/12 02:33:55;;;;;;;12.13;7.67;;;6.80;99.90;;;;;;5077909;28;20194;-49
2023/02/12 02:36:31;;;;;;;15.27;7.37;;;6.80;99.90;;;;;;5089653;28;20694;-56
2023/02/12 02:39:05;;;;;;;14.87;7.53;;;6.80;99.90;;;;;;5076358;28;20231;-51
2023/02/12 02:41:36;;;;;;;13.80;7.20;;;6.70;99.90;;;;;;5085350;28;20816;-55
2023/02/12 02:44:08;;;;;;;14.57;6.70;;;6.80;99.90;;;;;;5101119;28;20207;-46
2023/02/12 02:47:02;;;;;;;14.77;7.70;;;6.80;99.90;;;;;;5083410;28;20240;-49
2023/02/12 02:49:35;;;;;;;13.13;6.47;;;6.80;99.90;;;;;;5089693;28;20221;-57
2023/02/12 02:52:11;;;;;;;10.87;5.80;;;6.80;99.90;;;;;;5094707;28;20679;-51
2023/02/12 02:54:43;;;;;;;13.83;5.93;;;6.80;99.90;;;;;;5074783;28;20265;-50
2023/02/12 02:57:14;;;;;;;12.43;6.37;;;6.80;99.90;;;;;;5089749;28;20301;-47
2023/02/12 03:00:09;;;;;;;12.40;5.60;;;6.80;99.90;;;;;;5095588;28;20203;-46
2023/02/12 03:02:41;;;;;;;9.50;5.97;;;6.80;99.90;;;;;;5078260;28;20703;-55
2023/02/12 03:05:12;;;;;;;12.47;6.23;;;6.80;99.90;;;;;;5090118;28;20755;-50
2023/02/12 03:07:44;;;;;;;10.60;5.50;;;6.80;99.90;;;;;;5082700;28;20991;-49
2023/02/12 03:10:16;;;;;;;9.30;5.47;;;6.80;99.90;;;;;;5083088;28;20201;-46
2023/02/12 03:12:49;;;;;;;10.83;5.83;;;6.80;99.90;;;;;;5082345;28;20989;-53
2023/02/12 03:15:22;;;;;;;11.40;5.40;;;6.70;99.90;;;;;;5089894;28;20745;-51
2023/02/12 03:17:51;;;;;;;11.50;5.53;;;6.70;99.90;;;;;;5087288;28;20223;-46
2023/02/12 03:20:21;;;;;;;11.03;5.30;;;6.80;99.90;;;;;;5085742;28;20248;-54
2023/02/12 03:22:53;;;;;;;11.37;5.40;;;6.80;99.90;;;;;;5082169;28;20214;-47
2023/02/12 03:25:23;;;;;;;7.57;4.70;;;6.70;99.90;;;;;;5080096;28;20202;-56
2023/02/12 03:27:56;;;;;;;9.40;4.53;;;6.70;99.90;;;;;;5088102;28;20210;-47
2023/02/12 03:30:26;;;;;;;5.90;4.00;;;6.70;99.90;;;;;;5092906;28;20200;-56
2023/02/12 03:33:03;;;;;;;6.93;3.80;;;6.70;99.90;;;;;;5088059;28;20938;-48
2023/02/12 03:35:35;;;;;;;5.60;3.77;;;6.70;99.90;;;;;;5082379;28;20299;-55
2023/02/12 03:38:08;;;;;;;5.93;3.47;;;6.70;99.90;;;;;;5087124;28;20298;-46
2023/02/12 03:40:39;;;;;;;6.93;3.60;;;6.70;99.90;;;;;;5071628;28;20219;-57
2023/02/12 03:43:11;;;;;;;8.07;3.77;;;6.70;99.90;;;;;;5089598;28;20222;-50
2023/02/12 03:45:43;;;;;;;5.07;3.07;;;6.80;99.90;;;;;;5085231;28;20205;-55
2023/02/12 03:48:15;;;;;;;7.50;3.30;;;6.70;99.90;;;;;;5071306;28;20691;-50
2023/02/12 03:50:51;;;;;;;13.87;3.83;;;6.80;99.90;;;;;;5076300;28;20197;-47
2023/02/12 03:53:18;;;;;;;4.63;3.70;;;6.70;99.90;;;;;;5090643;28;20201;-50
2023/02/12 03:55:48;;;;;;;12.83;3.97;;;6.70;99.90;;;;;;5082371;28;20357;-51
2023/02/12 03:58:20;;;;;;;9.87;3.77;;;6.70;99.90;;;;;;5092135;28;20700;-51
2023/02/12 04:00:47;;;;;;;7.50;4.10;;;6.70;99.90;;;;;;5093410;28;20596;-48
2023/02/12 04:03:16;;;;;;;10.43;4.43;;;6.70;99.90;;;;;;5097273;28;20221;-47
2023/02/12 04:05:43;;;;;;;13.77;4.80;;;6.80;99.90;;;;;;5089225;28;21030;-47
2023/02/12 04:08:12;;;;;;;19.40;5.27;;;6.70;99.90;;;;;;5091880;28;20229;-50
2023/02/12 04:10:52;;;;;;;16.97;5.73;;;6.80;99.90;;;;;;5073980;28;20202;-50
2023/02/12 04:13:27;;;;;;;22.87;5.67;;;6.80;99.90;;;;;;5092394;28;20228;-53
2023/02/12 04:16:07;;;;;;;13.73;5.00;;;6.80;99.90;;;;;;5088389;28;20221;-52
2023/02/12 04:18:42;;;;;;;16.53;5.53;;;6.80;99.90;;;;;;5089152;28;20213;-57
2023/02/12 04:21:18;;;;;;;25.90;6.53;;;6.70;99.90;;;;;;5094614;28;20197;-48
2023/02/12 04:24:13;;;;;;;24.13;6.63;;;6.70;99.90;;;;;;5087230;28;20221;-47
2023/02/12 04:26:49;;;;;;;20.00;6.60;;;6.80;99.90;;;;;;5069581;28;20224;-47
2023/02/12 04:29:21;;;;;;;23.07;6.60;;;6.80;99.90;;;;;;5096342;28;20205;-52
2023/02/12 04:31:55;;;;;;;22.80;7.17;;;6.80;99.90;;;;;;5087654;28;20194;-49
2023/02/12 04:34:30;;;;;;;27.77;6.90;;;6.80;99.90;;;;;;5083819;28;20206;-59
2023/02/12 04:37:02;;;;;;;21.23;6.67;;;6.80;99.90;;;;;;5066869;28;20217;-46
2023/02/12 04:39:32;;;;;;;41.50;7.50;;;6.90;99.90;;;;;;5101833;28;20201;-56
2023/02/12 04:42:00;;;;;;;34.90;8.00;;;6.90;99.90;;;;;;5105010;28;20221;-49
2023/02/12 04:44:28;;;;;;;31.97;7.60;;;6.90;99.90;;;;;;5083866;28;20206;-57
2023/02/12 04:46:55;;;;;;;21.30;7.00;;;6.90;99.90;;;;;;5094324;28;20236;-48
2023/02/12 04:49:24;;;;;;;45.43;8.27;;;6.90;99.90;;;;;;5096958;28;20664;-51
2023/02/12 04:51:52;;;;;;;49.93;8.47;;;6.90;99.90;;;;;;5081323;28;20993;-46
2023/02/12 04:54:21;;;;;;;40.97;7.23;;;6.90;99.90;;;;;;5097964;28;20197;-57
2023/02/12 04:57:09;;;;;;;46.70;8.10;;;6.90;99.90;;;;;;5094042;28;20351;-48
2023/02/12 04:59:36;;;;;;;53.13;8.13;;;6.90;99.90;;;;;;5072219;28;20202;-53
2023/02/12 05:02:03;;;;;;;39.30;7.97;;;6.80;99.90;;;;;;5091602;28;20286;-49
2023/02/12 05:04:31;;;;;;;48.90;8.23;;;6.90;99.90;;;;;;5089029;28;20197;-56
2023/02/12 05:06:58;;;;;;;51.03;8.47;;;6.90;99.90;;;;;;5091012;28;20332;-48
2023/02/12 05:09:26;;;;;;;58.27;8.30;;;6.90;99.90;;;;;;5085563;28;20197;-55
2023/02/12 05:11:52;;;;;;;38.37;7.27;;;6.90;99.90;;;;;;5092342;28;20193;-47
2023/02/12 05:14:19;;;;;;;26.87;6.90;;;6.90;99.90;;;;;;5083967;28;20222;-56
2023/02/12 05:16:45;;;;;;;58.73;7.33;;;6.90;99.90;;;;;;5081209;28;20249;-49
2023/02/12 05:19:12;;;;;;;50.00;6.37;;;6.90;99.90;;;;;;5088026;28;20194;-46
2023/02/12 05:21:40;;;;;;;41.73;7.03;;;6.90;99.90;;;;;;5084330;28;20212;-51
2023/02/12 05:24:07;;;;;;;45.73;7.03;;;6.90;99.90;;;;;;5090557;28;20229;-46
2023/02/12 05:26:35;;;;;;;33.73;7.00;;;6.90;99.90;;;;;;5091844;28;20216;-55
2023/02/12 05:29:03;;;;;;;32.73;6.53;;;6.90;99.90;;;;;;5089493;28;20532;-52
2023/02/12 05:31:29;;;;;;;57.40;7.80;;;6.90;99.90;;;;;;5075085;28;20206;-53
2023/02/12 05:33:56;;;;;;;39.87;6.93;;;6.90;99.90;;;;;;5089550;28;20284;-48
2023/02/12 05:36:24;;;;;;;44.73;7.63;;;7.00;99.90;;;;;;5090133;28;20198;-51
2023/02/12 05:38:56;;;;;;;43.57;7.53;;;7.00;99.90;;;;;;5077940;28;20386;-49
2023/02/12 05:41:24;;;;;;;62.70;8.47;;;7.00;99.90;;;;;;5089883;28;20202;-56
2023/02/12 05:43:51;;;;;;;32.73;7.10;;;7.00;99.90;;;;;;5086350;28;20407;-46
2023/02/12 05:46:19;;;;;;;53.50;8.17;;;7.00;99.90;;;;;;5080484;28;20280;-53
2023/02/12 05:48:47;;;;;;;40.37;7.47;;;7.00;99.90;;;;;;5085013;28;20197;-46
2023/02/12 05:51:15;;;;;;;33.83;7.17;;;7.00;99.90;;;;;;5093068;28;20201;-45
2023/02/12 05:53:43;;;;;;;52.03;8.60;;;7.00;99.90;;;;;;5084291;28;20697;-45
2023/02/12 05:56:13;;;;;;;40.40;8.47;;;7.00;99.90;;;;;;5097576;28;20719;-49
2023/02/12 05:58:42;;;;;;;40.67;7.87;;;7.00;99.90;;;;;;5082819;28;20787;-49
2023/02/12 06:01:11;;;;;;;43.67;8.37;;;7.00;99.90;;;;;;5079899;28;20885;-46
2023/02/12 06:03:37;;;;;;;43.20;8.47;;;7.00;99.90;;;;;;5082750;28;20320;-53
2023/02/12 06:06:04;;;;;;;49.90;9.63;;;7.00;99.90;;;;;;5092365;28;20573;-45
2023/02/12 06:08:31;;;;;;;30.67;9.40;;;7.00;99.90;;;;;;5084585;27;20225;-54
2023/02/12 06:11:01;;;;;;;57.80;9.73;;;7.00;99.90;;;;;;5090877;28;20213;-45
2023/02/12 06:13:30;;;;;;;42.83;9.07;;;7.00;99.90;;;;;;5081696;28;20225;-53
2023/02/12 06:15:56;;;;;;;36.20;9.37;;;7.00;99.90;;;;;;5087853;28;20815;-49
2023/02/12 06:18:24;;;;;;;44.20;10.43;;;7.00;99.90;;;;;;5069607;28;20305;-55
2023/02/12 06:20:53;;;;;;;44.83;10.63;;;7.00;99.90;;;;;;5088761;28;20197;-49
2023/02/12 06:23:19;;;;;;;53.27;11.30;;;7.00;99.90;;;;;;5082257;27;20282;-53
2023/02/12 06:25:47;;;;;;;45.67;11.80;;;7.00;99.90;;;;;;5080130;28;20205;-47
2023/02/12 06:28:14;;;;;;;43.10;10.10;;;7.00;99.90;;;;;;5088554;28;20305;-47
2023/02/12 06:30:42;;;;;;;56.77;12.33;;;7.00;99.90;;;;;;5090575;28;20198;-48
2023/02/12 06:33:09;;;;;;;47.13;10.80;;;7.00;99.90;;;;;;5069279;28;20206;-48
2023/02/12 06:35:36;;;;;;;48.37;10.73;;;7.00;99.90;;;;;;5082485;28;20197;-58
2023/02/12 06:38:02;;;;;;;70.37;12.30;;;7.00;99.90;;;;;;5088108;28;20229;-47
2023/02/12 06:40:29;;;;;;;51.27;12.03;;;7.00;99.90;;;;;;5083862;27;20210;-50
2023/02/12 06:42:56;;;;;;;46.53;12.53;;;7.00;99.90;;;;;;5087454;28;20240;-52
2023/02/12 06:45:23;;;;;;;41.33;11.67;;;7.10;99.90;;;;;;5086919;27;20196;-49
2023/02/12 06:47:51;;;;;;;50.10;11.93;;;7.10;99.90;;;;;;5075685;28;20233;-48
2023/02/12 06:50:18;;;;;;;53.67;11.80;;;7.00;99.90;;;;;;5085134;28;20213;-55
2023/02/12 06:52:45;;;;;;;46.77;12.20;;;7.10;99.90;;;;;;5092472;28;20645;-48
2023/02/12 06:55:11;;;;;;;72.93;13.70;;;7.10;99.90;;;;;;5078326;28;20787;-55
2023/02/12 06:57:38;;;;;;;63.57;13.27;;;7.10;99.90;;;;;;5083261;28;20217;-52
2023/02/12 07:00:06;;;;;;;63.00;12.00;;;7.10;99.90;;;;;;5087662;28;20574;-56
2023/02/12 07:02:33;;;;;;;42.53;12.07;;;7.10;99.90;;;;;;5068235;28;20237;-62
2023/02/12 07:05:01;;;;;;;47.70;13.33;;;7.10;99.90;;;;;;5078196;28;20223;-52
2023/02/12 07:07:27;;;;;;;59.63;13.50;;;7.20;99.90;;;;;;5089309;28;20232;-61
2023/02/12 07:09:54;;;;;;;50.43;13.00;;;7.10;99.90;;;;;;5074645;28;22118;-51
2023/02/12 07:12:21;;;;;;;66.00;14.77;;;7.20;99.90;;;;;;5088512;28;20190;-53
2023/02/12 07:14:47;;;;;;;66.83;13.07;;;7.20;99.90;;;;;;5089485;28;20194;-51
2023/02/12 07:17:14;;;;;;;67.20;13.10;;;7.20;99.90;;;;;;5087201;28;20750;-57
2023/02/12 07:19:40;;;;;;;77.00;13.80;;;7.20;99.90;;;;;;5068724;28;20224;-58
2023/02/12 07:22:08;;;;;;;90.93;15.93;;;7.20;99.90;;;;;;5089774;28;20560;-49
2023/02/12 07:24:35;;;;;;;78.77;13.97;;;7.20;99.90;;;;;;5096875;28;20512;-58
2023/02/12 07:27:02;;;;;;;82.67;14.13;;;7.20;99.90;;;;;;5087637;27;20229;-52
2023/02/12 07:29:28;;;;;;;88.07;16.10;;;7.20;99.90;;;;;;5099621;28;20202;-56
2023/02/12 07:31:55;;;;;;;74.33;12.93;;;7.20;99.90;;;;;;5084298;27;20490;-47
2023/02/12 07:34:21;;;;;;;77.93;14.57;;;7.20;99.90;;;;;;5076516;28;20672;-46
2023/02/12 07:36:48;;;;;;;84.17;14.90;;;7.20;99.90;;;;;;5090389;28;20204;-45
2023/02/12 07:39:17;;;;;;;87.30;15.17;;;7.30;99.90;;;;;;5087085;28;20602;-47
2023/02/12 07:41:44;;;;;;;68.63;14.73;;;7.30;99.90;;;;;;5088341;28;20199;-45
2023/02/12 07:44:12;;;;;;;94.93;16.20;;;7.30;99.90;;;;;;5091127;27;20583;-50
2023/02/12 07:46:41;;;;;;;57.40;14.07;;;7.30;99.90;;;;;;5089883;27;20228;-54
2023/02/12 07:49:12;;;;;;;75.03;14.43;;;7.30;99.90;;;;;;5066901;27;20671;-53
2023/02/12 07:51:41;;;;;;;98.07;14.63;;;7.30;99.90;;;;;;5095826;28;20698;-44
2023/02/12 07:54:09;;;;;;;84.70;15.33;;;7.30;99.90;;;;;;5092580;27;20189;-50
2023/02/12 07:56:39;;;;;;;60.97;14.23;;;7.30;99.90;;;;;;5100249;28;20213;-45
2023/02/12 07:59:09;;;;;;;59.33;14.10;;;7.30;99.90;;;;;;5085784;28;20537;-52
2023/02/12 08:01:38;;;;;;;71.17;15.07;;;7.30;99.90;;;;;;5096241;27;20198;-45
2023/02/12 08:04:07;;;;;;;67.40;14.53;;;7.40;99.90;;;;;;5087844;28;20225;-52
2023/02/12 08:06:36;;;;;;;73.53;15.57;;;7.40;99.90;;;;;;5080298;28;20221;-46
2023/02/12 08:09:07;;;;;;;67.63;14.33;;;7.40;99.90;;;;;;5084009;28;20201;-53
2023/02/12 08:11:34;;;;;;;73.90;15.00;;;7.40;99.90;;;;;;5099035;28;20198;-45
2023/02/12 08:14:02;;;;;;;59.03;14.33;;;7.40;99.90;;;;;;5090808;27;20193;-51
2023/02/12 08:16:30;;;;;;;60.10;14.20;;;7.40;99.90;;;;;;5087407;27;20860;-44
2023/02/12 08:18:59;;;;;;;73.07;15.00;;;7.40;99.90;;;;;;5092407;28;20232;-52
2023/02/12 08:21:27;;;;;;;69.77;15.23;;;7.50;99.90;;;;;;5065686;28;20195;-47
2023/02/12 08:23:58;;;;;;;66.67;14.73;;;7.50;99.90;;;;;;5091071;28;20214;-53
2023/02/12 08:26:28;;;;;;;56.80;15.03;;;7.50;99.90;;;;;;5088768;27;20930;-45
2023/02/12 08:28:58;;;;;;;60.20;16.10;;;7.50;99.90;;;;;;5097902;28;20201;-51
2023/02/12 08:31:29;;;;;;;43.53;13.20;;;7.60;99.90;;;;;;5081727;27;21754;-43
2023/02/12 08:33:56;;;;;;;39.13;13.07;;;7.60;99.90;;;;;;5098449;28;20194;-54
2023/02/12 08:36:25;;;;;;;46.50;14.03;;;7.60;99.90;;;;;;5068146;28;20210;-47
2023/02/12 08:38:52;;;;;;;46.13;14.37;;;7.60;99.90;;;;;;5091689;28;20212;-45
2023/02/12 08:41:21;;;;;;;53.70;13.87;;;7.70;99.90;;;;;;5087921;27;20986;-48
2023/02/12 08:43:48;;;;;;;39.13;14.00;;;7.70;99.90;;;;;;5092732;28;20228;-46
2023/02/12 08:46:18;;;;;;;42.97;14.17;;;7.70;99.90;;;;;;5080521;27;20898;-47
2023/02/12 08:48:46;;;;;;;36.17;13.70;;;7.70;99.90;;;;;;5096935;28;20752;-44
2023/02/12 08:51:14;;;;;;;39.73;14.03;;;7.70;99.90;;;;;;5067023;28;20208;-50
2023/02/12 08:53:43;;;;;;;35.77;13.07;;;7.80;99.90;;;;;;5095699;28;20202;-45
2023/02/12 08:56:11;;;;;;;37.80;14.00;;;7.80;99.90;;;;;;5089184;27;20201;-50
2023/02/12 08:58:38;;;;;;;35.03;14.10;;;7.80;99.90;;;;;;5099470;28;20221;-48
2023/02/12 09:01:09;;;;;;;34.60;13.87;;;7.80;99.90;;;;;;5087728;27;20206;-50
2023/02/12 09:03:37;;;;;;;36.77;13.33;;;7.80;99.90;;;;;;5101899;28;20804;-44
2023/02/12 09:06:06;;;;;;;35.23;13.60;;;7.80;99.90;;;;;;5088837;28;20686;-54
2023/02/12 09:08:34;;;;;;;41.70;12.67;;;7.80;99.90;;;;;;5079908;28;20278;-47
2023/02/12 09:11:05;;;;;;;33.17;12.67;;;7.80;99.90;;;;;;5086300;27;20205;-50
2023/02/12 09:13:32;;;;;;;34.07;12.50;;;7.80;99.90;;;;;;5099754;28;20587;-48
2023/02/12 09:16:01;;;;;;;36.23;12.73;;;7.80;99.90;;;;;;5094327;28;20201;-51
2023/02/12 09:18:28;;;;;;;43.73;13.33;;;7.80;99.90;;;;;;5084526;27;20268;-46
2023/02/12 09:20:55;;;;;;;32.63;11.80;;;7.80;99.90;;;;;;5086618;28;20202;-53
2023/02/12 09:23:23;;;;;;;33.43;12.13;;;7.90;99.90;;;;;;5079333;28;20217;-45
2023/02/12 09:25:49;;;;;;;34.90;12.93;;;7.90;99.90;;;;;;5094882;27;20310;-44
2023/02/12 09:28:16;;;;;;;33.27;12.20;;;7.90;99.90;;;;;;5093804;28;20921;-47
2023/02/12 09:30:43;;;;;;;31.50;11.90;;;7.90;99.90;;;;;;5100195;28;20676;-46
2023/02/12 09:33:11;;;;;;;31.60;11.13;;;8.00;99.90;;;;;;5082654;27;20194;-52
2023/02/12 09:36:00;;;;;;;31.87;11.13;;;7.90;99.90;;;;;;5096960;28;20305;-52
2023/02/12 09:38:29;;;;;;;29.27;11.37;;;7.90;99.90;;;;;;5073319;28;20225;-46
2023/02/12 09:41:12;;;;;;;33.07;12.23;;;8.00;99.90;;;;;;5090966;28;20269;-50
2023/02/12 09:43:44;;;;;;;29.30;11.10;;;8.00;99.90;;;;;;5088745;28;20213;-46
2023/02/12 09:46:16;;;;;;;27.10;9.63;;;8.10;99.90;;;;;;5089756;28;20195;-51
2023/02/12 09:48:53;;;;;;;24.30;10.67;;;8.10;99.90;;;;;;5088587;27;20687;-48
2023/02/12 09:51:20;;;;;;;25.20;9.63;;;8.10;99.90;;;;;;5093055;28;20197;-45
2023/02/12 09:53:52;;;;;;;22.20;8.87;;;8.10;99.90;;;;;;5070694;27;20198;-44
2023/02/12 09:56:22;;;;;;;24.77;9.97;;;8.10;99.90;;;;;;5092164;28;20789;-50
2023/02/12 09:58:52;;;;;;;27.03;10.37;;;8.10;99.90;;;;;;5090866;27;20201;-49
2023/02/12 10:01:21;;;;;;;28.87;10.93;;;8.10;99.90;;;;;;5094764;28;20192;-48
2023/02/12 10:03:51;;;;;;;23.37;10.37;;;8.10;99.90;;;;;;5089443;28;20201;-48
2023/02/12 10:06:20;;;;;;;25.43;11.77;;;8.10;99.90;;;;;;5095954;28;20193;-51
2023/02/12 10:09:09;;;;;;;25.43;10.63;;;8.10;99.90;;;;;;5096184;28;20579;-50
2023/02/12 10:12:07;;;;;;;26.60;11.07;;;8.10;99.90;;;;;;5105385;27;20186;-49
2023/02/12 10:15:04;;;;;;;23.00;9.97;;;8.10;99.90;;;;;;5077022;27;20670;-49
2023/02/12 10:17:40;;;;;;;27.73;10.47;;;8.10;99.90;;;;;;5123265;27;21030;-48
2023/02/12 10:20:37;;;;;;;25.90;10.33;;;8.10;99.90;;;;;;5093239;27;20889;-51
2023/02/12 10:23:20;;;;;;;25.50;10.77;;;8.10;99.90;;;;;;5097281;28;20318;-56
2023/02/12 10:25:51;;;;;;;25.90;10.97;;;8.10;99.90;;;;;;5091564;28;20205;-50
2023/02/12 10:28:21;;;;;;;27.30;11.00;;;8.20;99.90;;;;;;5092409;28;20224;-49
2023/02/12 10:30:53;;;;;;;21.67;11.17;;;8.20;99.90;;;;;;5100150;28;20565;-51
2023/02/12 10:33:28;;;;;;;30.63;13.20;;;8.20;99.90;;;;;;5082936;28;20193;-49
2023/02/12 10:36:02;;;;;;;27.00;12.13;;;8.10;99.90;;;;;;5085460;28;20198;-55
2023/02/12 10:38:33;;;;;;;30.53;11.83;;;8.20;99.90;;;;;;5083722;28;20236;-48
2023/02/12 10:41:02;;;;;;;29.80;12.40;;;8.20;99.90;;;;;;5076997;27;20201;-56
2023/02/12 10:43:29;;;;;;;25.50;11.23;;;8.20;99.90;;;;;;5099565;27;20208;-52
2023/02/12 10:45:56;;;;;;;32.87;12.03;;;8.20;99.90;;;;;;5090650;27;20205;-55
2023/02/12 10:48:26;;;;;;;24.33;10.80;;;8.20;99.90;;;;;;5082155;28;20271;-53
2023/02/12 10:51:05;;;;;;;25.30;11.63;;;8.20;99.90;;;;;;5079039;28;20209;-54
2023/02/12 10:53:35;;;;;;;27.23;12.40;;;8.20;99.90;;;;;;5081300;28;20197;-48
2023/02/12 10:56:17;;;;;;;28.87;11.70;;;8.20;99.90;;;;;;5074094;28;20582;-55
2023/02/12 10:58:53;;;;;;;31.53;12.30;;;8.20;99.90;;;;;;5091493;28;20201;-49
2023/02/12 11:01:24;;;;;;;26.40;10.93;;;8.30;99.90;;;;;;5088247;28;20180;-51
2023/02/12 11:03:52;;;;;;;35.27;12.87;;;8.30;99.90;;;;;;5094151;28;20581;-60
2023/02/12 11:06:20;;;;;;;35.20;12.90;;;8.20;99.90;;;;;;5085658;28;20199;-50
2023/02/12 11:08:47;;;;;;;28.93;12.20;;;8.20;99.90;;;;;;5098514;28;20209;-48
2023/02/12 11:11:25;;;;;;;30.60;11.47;;;8.20;99.90;;;;;;5076236;28;21284;-52
2023/02/12 11:13:58;;;;;;;26.93;12.07;;;8.20;99.90;;;;;;5094526;27;20656;-50
2023/02/12 11:16:28;;;;;;;28.87;12.27;;;8.20;99.90;;;;;;5088818;27;20197;-47
2023/02/12 11:18:59;;;;;;;26.93;10.60;;;8.20;99.90;;;;;;5097936;28;20230;-54
2023/02/12 11:21:26;;;;;;;29.37;11.43;;;8.20;99.90;;;;;;5085709;28;20200;-51
2023/02/12 11:23:53;;;;;;;24.23;10.83;;;8.20;99.90;;;;;;5097696;28;20212;-54
2023/02/12 11:26:27;;;;;;;29.57;12.10;;;8.30;99.90;;;;;;5081126;27;20208;-52
2023/02/12 11:28:56;;;;;;;21.10;9.30;;;8.20;99.90;;;;;;5091736;27;20205;-51
2023/02/12 11:31:24;;;;;;;28.77;10.30;;;8.30;99.90;;;;;;5091032;27;20243;-52
2023/02/12 11:34:09;;;;;;;28.57;10.80;;;8.30;99.90;;;;;;5094254;28;20201;-48
2023/02/12 11:36:38;;;;;;;27.03;10.40;;;8.30;99.90;;;;;;5085586;28;20227;-54
2023/02/12 11:39:07;;;;;;;26.90;10.33;;;8.20;99.90;;;;;;5091395;28;20201;-49
2023/02/12 11:41:38;;;;;;;20.83;9.30;;;8.30;99.90;;;;;;5082354;28;20190;-52
2023/02/12 11:44:10;;;;;;;23.97;9.53;;;8.30;99.90;;;;;;5094171;27;20217;-49
2023/02/12 11:46:39;;;;;;;24.23;9.57;;;8.30;99.90;;;;;;5088862;27;20221;-54
2023/02/12 11:49:08;;;;;;;19.90;9.17;;;8.30;99.90;;;;;;5099863;28;20186;-51
2023/02/12 11:51:37;;;;;;;17.63;9.03;;;8.30;99.90;;;;;;5091915;28;20727;-54
2023/02/12 11:54:05;;;;;;;18.30;8.33;;;8.40;99.90;;;;;;5097288;28;20201;-47
2023/02/12 11:56:43;;;;;;;19.67;8.50;;;8.40;99.90;;;;;;5101310;28;20194;-51
2023/02/12 11:59:20;;;;;;;21.30;9.43;;;8.40;99.90;;;;;;5088603;28;20286;-48
2023/02/12 12:01:49;;;;;;;15.97;7.97;;;8.40;99.90;;;;;;5082847;27;20842;-49
2023/02/12 12:04:19;;;;;;;17.33;8.70;;;8.40;99.90;;;;;;5101866;28;20540;-51
2023/02/12 12:06:48;;;;;;;19.10;7.87;;;8.40;99.90;;;;;;5099198;28;20209;-48
2023/02/12 12:09:20;;;;;;;18.30;8.13;;;8.40;99.90;;;;;;5086381;28;20223;-48
2023/02/12 12:11:57;;;;;;;18.93;8.43;;;8.40;99.90;;;;;;5095246;28;20189;-51
2023/02/12 12:14:29;;;;;;;14.00;7.60;;;8.50;99.90;;;;;;5087134;28;20678;-53
2023/02/12 12:19:56;;;;;;;20.23;8.07;;;8.50;99.90;;;;;;5092998;27;20193;-50
2023/02/12 12:22:44;;;;;;;16.47;7.53;;;8.50;99.90;;;;;;5097833;28;20196;-52
2023/02/12 12:25:20;;;;;;;13.03;7.07;;;8.60;99.90;;;;;;5086154;28;20205;-48
2023/02/12 12:28:02;;;;;;;13.50;6.77;;;8.60;99.90;;;;;;5092079;28;20962;-48
2023/02/12 12:30:51;;;;;;;12.93;5.23;;;8.60;99.90;;;;;;5080533;28;20197;-54
2023/02/12 12:33:26;;;;;;;8.37;5.17;;;8.60;99.90;;;;;;5092227;27;20206;-50
2023/02/12 12:36:04;;;;;;;11.77;5.20;;;8.70;99.90;;;;;;5095102;28;20184;-47
2023/02/12 12:38:45;;;;;;;8.00;4.40;;;8.70;99.90;;;;;;5083379;28;20213;-51
2023/02/12 12:41:23;;;;;;;10.67;5.53;;;8.70;99.90;;;;;;5083833;28;20911;-49
2023/02/12 12:44:09;;;;;;;8.60;5.07;;;8.70;99.90;;;;;;5071728;28;20205;-54
2023/02/12 12:46:54;;;;;;;7.90;5.43;;;8.70;99.90;;;;;;5089697;28;20224;-48
2023/02/12 12:49:45;;;;;;;10.93;5.63;;;8.60;99.90;;;;;;5094296;28;20192;-49
2023/02/12 12:52:39;;;;;;;10.67;5.70;;;8.60;99.90;;;;;;5094984;28;20190;-47
2023/02/12 12:55:44;;;;;;;11.97;5.70;;;8.60;99.90;;;;;;5079235;28;20213;-49
2023/02/12 12:58:18;;;;;;;8.80;5.10;;;8.60;99.90;;;;;;5097453;28;20228;-50
2023/02/12 13:01:02;;;;;;;8.93;5.40;;;8.60;99.90;;;;;;5081016;28;20207;-53
2023/02/12 13:03:52;;;;;;;8.87;5.30;;;8.60;99.90;;;;;;5087940;27;20205;-51
2023/02/12 13:06:38;;;;;;;6.87;4.60;;;8.60;99.90;;;;;;5090533;28;20463;-48
2023/02/12 13:09:45;;;;;;;5.93;4.00;;;8.60;99.90;;;;;;5084961;28;20263;-54